createdAt,value
2019-05-03T00:00:06.313Z,73.11
2019-05-03T00:02:26.734Z,73.10
2019-05-03T00:03:32.028Z,73.11
2019-05-03T00:04:37.974Z,73.12
2019-05-03T00:05:46.117Z,73.17
2019-05-03T00:06:52.082Z,73.07
2019-05-03T00:08:02.188Z,73.12
2019-05-03T00:09:09.387Z,73.09
2019-05-03T00:10:14.986Z,73.19
2019-05-03T00:11:22.094Z,73.24
2019-05-03T00:12:27.598Z,73.23
2019-05-03T00:13:32.666Z,73.22
2019-05-03T00:14:39.377Z,73.23
2019-05-03T00:15:52.225Z,73.25
2019-05-03T00:16:57.183Z,73.21
2019-05-03T00:18:02.416Z,73.19
2019-05-03T00:19:07.499Z,73.16
2019-05-03T00:20:12.699Z,73.18
2019-05-03T00:21:17.727Z,73.11
2019-05-03T00:22:22.703Z,73.08
2019-05-03T00:23:27.622Z,73.07
2019-05-03T00:24:32.671Z,73.03
2019-05-03T00:25:37.703Z,72.99
2019-05-03T00:26:42.903Z,73.00
2019-05-03T00:27:48.148Z,72.92
2019-05-03T00:28:53.069Z,72.92
2019-05-03T00:29:58.257Z,73.02
2019-05-03T00:31:03.711Z,73.05
2019-05-03T00:32:12.488Z,72.99
2019-05-03T00:33:17.661Z,72.91
2019-05-03T00:34:27.850Z,72.92
2019-05-03T00:35:54.972Z,72.90
2019-05-03T00:37:01.849Z,72.74
2019-05-03T00:38:08.445Z,72.73
2019-05-03T00:39:21.608Z,72.75
2019-05-03T00:40:29.933Z,72.80
2019-05-03T00:41:34.864Z,72.79
2019-05-03T00:42:39.875Z,72.74
2019-05-03T00:43:44.810Z,72.84
2019-05-03T00:44:51.677Z,72.86
2019-05-03T00:45:56.713Z,72.86
2019-05-03T00:47:02.325Z,72.86
2019-05-03T00:48:07.299Z,72.85
2019-05-03T00:49:12.309Z,72.74
2019-05-03T00:50:17.255Z,72.74
2019-05-03T00:51:22.626Z,72.74
2019-05-03T00:52:27.899Z,72.71
2019-05-03T00:53:32.818Z,72.72
2019-05-03T00:54:37.744Z,72.69
2019-05-03T00:55:42.765Z,72.66
2019-05-03T00:56:47.934Z,72.76
2019-05-03T00:57:53.122Z,72.81
2019-05-03T00:58:59.224Z,72.77
2019-05-03T01:00:04.560Z,72.76
2019-05-03T01:01:09.575Z,72.74
2019-05-03T01:02:14.612Z,72.75
2019-05-03T01:03:21.809Z,72.78
2019-05-03T01:04:26.510Z,72.80
2019-05-03T01:05:33.147Z,72.83
2019-05-03T01:06:38.184Z,72.86
2019-05-03T01:07:43.478Z,72.93
2019-05-03T01:08:48.800Z,72.96
2019-05-03T01:09:53.744Z,72.97
2019-05-03T01:10:58.680Z,72.96
2019-05-03T01:12:03.721Z,72.95
2019-05-03T01:13:08.876Z,72.95
2019-05-03T01:14:13.932Z,72.82
2019-05-03T01:15:26.216Z,72.73
2019-05-03T01:16:31.853Z,72.75
2019-05-03T01:17:36.930Z,72.72
2019-05-03T01:18:42.323Z,72.74
2019-05-03T01:19:47.328Z,72.68
2019-05-03T01:20:52.294Z,72.68
2019-05-03T01:21:57.299Z,72.69
2019-05-03T01:23:02.504Z,72.68
2019-05-03T01:24:07.503Z,72.67
2019-05-03T01:25:12.590Z,72.63
2019-05-03T01:26:17.942Z,72.49
2019-05-03T01:27:22.945Z,72.43
2019-05-03T01:28:28.655Z,72.40
2019-05-03T01:29:33.654Z,72.33
2019-05-03T01:30:38.872Z,72.33
2019-05-03T01:31:44.053Z,72.25
2019-05-03T01:32:49.482Z,72.18
2019-05-03T01:33:54.814Z,72.11
2019-05-03T01:34:59.767Z,72.00
2019-05-03T01:36:04.975Z,72.00
2019-05-03T01:37:11.817Z,71.97
2019-05-03T01:38:19.396Z,71.95
2019-05-03T01:39:23.671Z,71.89
2019-05-03T01:40:28.678Z,71.85
2019-05-03T01:41:33.611Z,71.83
2019-05-03T01:42:38.591Z,71.75
2019-05-03T01:43:43.507Z,71.72
2019-05-03T01:44:48.529Z,71.67
2019-05-03T01:45:53.698Z,71.69
2019-05-03T01:47:02.302Z,71.60
2019-05-03T01:48:21.599Z,71.55
2019-05-03T01:49:45.599Z,71.49
2019-05-03T01:51:02.852Z,71.45
2019-05-03T01:52:15.483Z,71.39
2019-05-03T01:53:21.652Z,71.37
2019-05-03T01:54:26.736Z,71.45
2019-05-03T01:55:49.567Z,71.50
2019-05-03T01:56:58.749Z,71.56
2019-05-03T01:58:01.940Z,71.54
2019-05-03T01:59:06.966Z,71.52
2019-05-03T02:00:14.937Z,71.50
2019-05-03T02:01:34.833Z,71.42
2019-05-03T02:02:56.426Z,71.40
2019-05-03T02:04:07.008Z,71.28
2019-05-03T02:05:40.022Z,71.29
2019-05-03T02:06:45.561Z,71.25
2019-05-03T02:07:51.966Z,71.15
2019-05-03T02:08:57.359Z,71.11
2019-05-03T02:10:02.858Z,71.13
2019-05-03T02:11:07.893Z,71.13
2019-05-03T02:12:12.880Z,71.08
2019-05-03T02:13:18.001Z,70.99
2019-05-03T02:14:22.931Z,70.93
2019-05-03T02:15:28.207Z,70.88
2019-05-03T02:16:33.313Z,70.81
2019-05-03T02:17:38.579Z,70.79
2019-05-03T02:18:43.503Z,70.76
2019-05-03T02:19:48.643Z,70.69
2019-05-03T02:20:54.077Z,70.66
2019-05-03T02:21:59.001Z,70.70
2019-05-03T02:23:04.035Z,70.71
2019-05-03T02:24:09.252Z,70.70
2019-05-03T02:25:14.248Z,70.66
2019-05-03T02:26:19.794Z,70.69
2019-05-03T02:27:24.711Z,70.73
2019-05-03T02:28:29.733Z,70.73
2019-05-03T02:29:34.987Z,70.77
2019-05-03T02:30:43.681Z,70.78
2019-05-03T02:31:46.970Z,70.78
2019-05-03T02:32:53.338Z,70.85
2019-05-03T02:33:58.467Z,70.85
2019-05-03T02:35:03.574Z,70.88
2019-05-03T02:36:08.489Z,70.88
2019-05-03T02:37:14.075Z,70.87
2019-05-03T02:38:19.390Z,70.92
2019-05-03T02:39:24.429Z,70.90
2019-05-03T02:40:29.409Z,70.95
2019-05-03T02:41:34.355Z,71.02
2019-05-03T02:42:39.437Z,71.09
2019-05-03T02:43:47.610Z,71.19
2019-05-03T02:44:55.156Z,71.24
2019-05-03T02:46:07.302Z,71.29
2019-05-03T02:47:30.187Z,71.28
2019-05-03T02:48:41.380Z,71.28
2019-05-03T02:49:56.001Z,71.24
2019-05-03T02:51:00.411Z,71.31
2019-05-03T02:52:06.677Z,71.40
2019-05-03T02:53:12.237Z,71.43
2019-05-03T02:54:17.393Z,71.43
2019-05-03T02:55:25.720Z,71.44
2019-05-03T02:56:29.601Z,71.42
2019-05-03T02:57:35.259Z,71.48
2019-05-03T02:58:40.224Z,71.47
2019-05-03T02:59:49.728Z,71.51
2019-05-03T03:00:58.310Z,71.50
2019-05-03T03:02:06.126Z,71.52
2019-05-03T03:03:10.732Z,71.49
2019-05-03T03:04:17.223Z,71.47
2019-05-03T03:05:25.187Z,71.51
2019-05-03T03:06:31.586Z,71.51
2019-05-03T03:07:37.707Z,71.58
2019-05-03T03:08:46.029Z,71.58
2019-05-03T03:09:51.692Z,71.67
2019-05-03T03:11:00.124Z,71.73
2019-05-03T03:12:07.129Z,71.82
2019-05-03T03:13:16.214Z,71.87
2019-05-03T03:14:22.182Z,71.92
2019-05-03T03:15:28.987Z,72.00
2019-05-03T03:16:36.402Z,72.09
2019-05-03T03:17:45.671Z,72.16
2019-05-03T03:18:52.594Z,72.26
2019-05-03T03:19:59.403Z,72.25
2019-05-03T03:21:08.365Z,72.29
2019-05-03T03:22:16.338Z,72.33
2019-05-03T03:23:26.105Z,72.33
2019-05-03T03:24:31.952Z,72.32
2019-05-03T03:25:40.237Z,72.37
2019-05-03T03:26:47.378Z,72.42
2019-05-03T03:27:56.479Z,72.48
2019-05-03T03:29:06.125Z,72.51
2019-05-03T03:30:31.643Z,72.55
2019-05-03T03:32:01.275Z,72.61
2019-05-03T03:33:09.732Z,72.67
2019-05-03T03:34:18.161Z,72.74
2019-05-03T03:35:29.950Z,72.79
2019-05-03T03:36:57.972Z,72.85
2019-05-03T03:37:46.246Z,72.90
2019-05-03T03:38:51.056Z,73.00
2019-05-03T03:39:56.524Z,73.02
2019-05-03T03:41:05.604Z,73.09
2019-05-03T03:42:11.012Z,73.12
2019-05-03T03:43:17.540Z,73.21
2019-05-03T03:44:25.374Z,73.42
2019-05-03T03:45:30.114Z,73.15
2019-05-03T03:46:37.898Z,73.15
2019-05-03T03:47:46.411Z,73.46
2019-05-03T03:48:55.934Z,73.53
2019-05-03T03:50:01.949Z,73.53
2019-05-03T03:51:09.927Z,73.59
2019-05-03T03:52:16.125Z,73.64
2019-05-03T03:53:22.724Z,73.64
2019-05-03T03:54:31.064Z,73.65
2019-05-03T03:55:38.708Z,73.68
2019-05-03T03:57:02.194Z,73.75
2019-05-03T03:57:55.687Z,73.78
2019-05-03T03:59:00.964Z,73.78
2019-05-03T04:00:09.767Z,73.77
2019-05-03T04:01:15.700Z,73.80
2019-05-03T04:02:21.059Z,73.81
2019-05-03T04:03:26.527Z,73.81
2019-05-03T04:04:32.416Z,73.84
2019-05-03T04:05:37.858Z,73.90
2019-05-03T04:06:43.047Z,73.98
2019-05-03T04:07:48.092Z,74.06
2019-05-03T04:08:56.095Z,74.05
2019-05-03T04:10:00.860Z,73.74
2019-05-03T04:11:06.429Z,73.74
2019-05-03T04:12:12.215Z,74.04
2019-05-03T04:13:18.476Z,74.01
2019-05-03T04:14:29.627Z,73.94
2019-05-03T04:15:50.110Z,73.97
2019-05-03T04:17:08.453Z,74.01
2019-05-03T04:18:25.740Z,74.04
2019-05-03T04:19:36.401Z,74.10
2019-05-03T04:20:40.609Z,74.13
2019-05-03T04:21:45.704Z,74.21
2019-05-03T04:22:50.631Z,74.25
2019-05-03T04:23:56.130Z,74.29
2019-05-03T04:25:01.782Z,74.31
2019-05-03T04:26:07.187Z,74.32
2019-05-03T04:27:19.678Z,74.31
2019-05-03T04:28:20.200Z,74.35
2019-05-03T04:29:25.760Z,74.45
2019-05-03T04:30:30.862Z,75.06
2019-05-03T04:31:36.739Z,75.06
2019-05-03T04:32:41.927Z,74.57
2019-05-03T04:33:47.043Z,74.60
2019-05-03T04:34:52.735Z,74.61
2019-05-03T04:35:57.847Z,74.62
2019-05-03T04:37:05.274Z,74.64
2019-05-03T04:38:09.583Z,74.64
2019-05-03T04:39:19.678Z,74.66
2019-05-03T04:40:21.445Z,74.73
2019-05-03T04:41:27.139Z,74.76
2019-05-03T04:42:32.182Z,74.73
2019-05-03T04:43:37.168Z,74.86
2019-05-03T04:44:45.350Z,74.86
2019-05-03T04:46:06.221Z,74.45
2019-05-03T04:47:10.275Z,74.45
2019-05-03T04:48:16.214Z,74.68
2019-05-03T04:49:21.410Z,74.65
2019-05-03T04:50:26.408Z,74.71
2019-05-03T04:51:31.453Z,74.87
2019-05-03T04:52:36.400Z,74.87
2019-05-03T04:53:45.470Z,74.50
2019-05-03T04:54:56.222Z,74.43
2019-05-03T04:56:01.693Z,74.17
2019-05-03T04:57:06.976Z,74.09
2019-05-03T04:58:11.937Z,73.93
2019-05-03T04:59:16.976Z,73.74
2019-05-03T05:00:22.179Z,73.52
2019-05-03T05:01:27.141Z,73.46
2019-05-03T05:02:35.234Z,73.01
2019-05-03T05:03:39.423Z,72.86
2019-05-03T05:04:46.341Z,72.57
2019-05-03T05:05:51.289Z,72.36
2019-05-03T05:06:56.235Z,72.17
2019-05-03T05:08:01.180Z,71.99
2019-05-03T05:09:07.246Z,71.99
2019-05-03T05:10:15.114Z,71.95
2019-05-03T05:11:19.272Z,71.02
2019-05-03T05:12:25.279Z,71.02
2019-05-03T05:13:30.336Z,71.34
2019-05-03T05:14:35.542Z,71.12
2019-05-03T05:15:40.708Z,71.14
2019-05-03T05:16:46.571Z,70.67
2019-05-03T05:18:05.768Z,70.59
2019-05-03T05:19:15.137Z,70.40
2019-05-03T05:20:26.230Z,70.10
2019-05-03T05:21:35.516Z,69.89
2019-05-03T05:22:40.638Z,69.79
2019-05-03T05:24:02.327Z,69.66
2019-05-03T05:25:11.118Z,69.51
2019-05-03T05:26:19.162Z,69.30
2019-05-03T05:27:29.911Z,69.17
2019-05-03T05:28:47.655Z,69.08
2019-05-03T05:29:52.852Z,68.97
2019-05-03T05:30:58.279Z,68.82
2019-05-03T05:32:05.195Z,68.70
2019-05-03T05:33:20.558Z,68.50
2019-05-03T05:34:25.728Z,68.39
2019-05-03T05:35:30.730Z,68.23
2019-05-03T05:36:35.669Z,68.14
2019-05-03T05:37:40.878Z,68.04
2019-05-03T05:38:45.848Z,67.94
2019-05-03T05:39:50.993Z,67.79
2019-05-03T05:40:56.343Z,67.78
2019-05-03T05:42:01.429Z,67.63
2019-05-03T05:43:06.442Z,67.63
2019-05-03T05:44:11.795Z,67.64
2019-05-03T05:45:16.787Z,67.59
2019-05-03T05:46:24.911Z,67.62
2019-05-03T05:47:46.652Z,67.63
2019-05-03T05:48:51.867Z,67.56
2019-05-03T05:50:00.913Z,67.72
2019-05-03T05:51:06.142Z,67.38
2019-05-03T05:52:11.656Z,67.37
2019-05-03T05:53:16.809Z,67.18
2019-05-03T05:54:21.865Z,67.04
2019-05-03T05:55:44.846Z,67.06
2019-05-03T05:57:05.047Z,66.93
2019-05-03T05:58:19.517Z,66.58
2019-05-03T05:59:29.344Z,66.34
2019-05-03T06:00:44.678Z,66.16
2019-05-03T06:01:58.379Z,66.12
2019-05-03T06:03:05.151Z,65.94
2019-05-03T06:04:10.241Z,65.88
2019-05-03T06:05:15.332Z,65.64
2019-05-03T06:06:30.803Z,65.58
2019-05-03T06:07:51.789Z,65.57
2019-05-03T06:09:05.086Z,65.62
2019-05-03T06:10:16.735Z,65.60
2019-05-03T06:11:29.282Z,65.32
2019-05-03T06:12:45.504Z,65.37
2019-05-03T06:13:55.116Z,65.54
2019-05-03T06:15:04.736Z,65.42
2019-05-03T06:16:17.669Z,65.35
2019-05-03T06:17:27.209Z,65.22
2019-05-03T06:18:39.184Z,65.03
2019-05-03T06:20:05.453Z,64.97
2019-05-03T06:21:20.363Z,64.79
2019-05-03T06:22:31.936Z,64.62
2019-05-03T06:23:40.958Z,64.39
2019-05-03T06:24:50.981Z,64.15
2019-05-03T06:25:55.949Z,63.87
2019-05-03T06:27:15.226Z,63.24
2019-05-03T06:28:28.811Z,63.04
2019-05-03T06:29:35.174Z,62.99
2019-05-03T06:31:02.350Z,62.81
2019-05-03T06:32:31.906Z,62.63
2019-05-03T06:33:36.947Z,62.30
2019-05-03T06:34:41.945Z,61.99
2019-05-03T06:35:46.967Z,61.82
2019-05-03T06:36:55.290Z,61.63
2019-05-03T06:38:00.204Z,60.99
2019-05-03T06:39:08.522Z,61.09
2019-05-03T06:40:14.901Z,60.75
2019-05-03T06:41:20.019Z,60.28
2019-05-03T06:42:25.526Z,59.93
2019-05-03T06:43:30.822Z,59.71
2019-05-03T06:44:36.056Z,59.57
2019-05-03T06:45:45.826Z,59.44
2019-05-03T06:46:48.025Z,59.17
2019-05-03T06:47:55.088Z,58.96
2019-05-03T06:49:01.037Z,58.76
2019-05-03T06:50:06.347Z,58.45
2019-05-03T06:51:17.227Z,58.30
2019-05-03T06:52:19.893Z,57.97
2019-05-03T06:53:25.572Z,57.89
2019-05-03T06:54:30.628Z,57.70
2019-05-03T06:55:39.699Z,57.38
2019-05-03T06:56:42.494Z,57.05
2019-05-03T06:57:49.509Z,56.81
2019-05-03T06:58:55.216Z,56.55
2019-05-03T07:00:11.379Z,56.41
2019-05-03T07:01:28.414Z,56.17
2019-05-03T07:02:48.201Z,55.85
2019-05-03T07:04:00.317Z,55.59
2019-05-03T07:05:07.107Z,55.39
2019-05-03T07:06:40.652Z,55.27
2019-05-03T07:07:49.302Z,55.28
2019-05-03T07:09:02.833Z,54.93
2019-05-03T07:10:12.005Z,54.67
2019-05-03T07:11:17.020Z,54.52
2019-05-03T07:12:22.096Z,54.42
2019-05-03T07:13:27.021Z,54.10
2019-05-03T07:14:32.040Z,54.07
2019-05-03T07:15:36.985Z,54.01
2019-05-03T07:16:41.922Z,53.83
2019-05-03T07:17:46.897Z,53.65
2019-05-03T07:18:51.856Z,53.59
2019-05-03T07:19:56.786Z,53.44
2019-05-03T07:21:01.794Z,53.15
2019-05-03T07:22:06.879Z,52.82
2019-05-03T07:23:11.961Z,52.74
2019-05-03T07:24:17.449Z,52.43
2019-05-03T07:25:22.437Z,52.35
2019-05-03T07:26:27.689Z,52.31
2019-05-03T07:27:34.871Z,52.29
2019-05-03T07:28:47.118Z,52.27
2019-05-03T07:29:46.594Z,52.04
2019-05-03T07:30:51.553Z,52.00
2019-05-03T07:31:56.518Z,51.97
2019-05-03T07:33:05.824Z,51.81
2019-05-03T07:34:10.790Z,51.58
2019-05-03T07:35:15.894Z,51.39
2019-05-03T07:36:20.845Z,51.25
2019-05-03T07:37:25.796Z,51.16
2019-05-03T07:38:30.800Z,51.10
2019-05-03T07:39:35.806Z,51.01
2019-05-03T07:40:41.052Z,51.01
2019-05-03T07:41:46.246Z,50.99
2019-05-03T07:42:51.274Z,50.84
2019-05-03T07:43:56.515Z,50.69
2019-05-03T07:45:01.491Z,50.64
2019-05-03T07:46:06.585Z,50.60
2019-05-03T07:47:11.735Z,50.29
2019-05-03T07:48:16.940Z,50.18
2019-05-03T07:49:21.971Z,50.14
2019-05-03T07:50:27.359Z,49.83
2019-05-03T07:51:32.336Z,49.97
2019-05-03T07:52:37.249Z,50.02
2019-05-03T07:53:42.229Z,50.07
2019-05-03T07:54:47.219Z,50.07
2019-05-03T07:56:17.324Z,50.11
2019-05-03T07:57:45.315Z,50.26
2019-05-03T07:59:00.007Z,50.31
2019-05-03T07:59:59.760Z,50.25
2019-05-03T08:01:09.987Z,50.31
2019-05-03T08:02:15.032Z,50.24
2019-05-03T08:03:20.138Z,50.21
2019-05-03T08:04:25.662Z,50.30
2019-05-03T08:05:30.850Z,50.40
2019-05-03T08:06:35.849Z,50.19
2019-05-03T08:07:43.797Z,50.04
2019-05-03T08:08:47.702Z,50.05
2019-05-03T08:09:52.628Z,50.19
2019-05-03T08:10:57.810Z,50.19
2019-05-03T08:12:04.901Z,50.09
2019-05-03T08:13:09.481Z,49.99
2019-05-03T08:14:18.003Z,49.75
2019-05-03T08:15:21.536Z,49.39
2019-05-03T08:16:26.564Z,48.91
2019-05-03T08:17:31.790Z,48.62
2019-05-03T08:18:36.790Z,48.45
2019-05-03T08:19:41.829Z,48.35
2019-05-03T08:20:47.248Z,48.25
2019-05-03T08:21:52.287Z,48.25
2019-05-03T08:22:57.233Z,48.00
2019-05-03T08:24:04.393Z,47.70
2019-05-03T08:25:09.051Z,47.47
2019-05-03T08:26:15.271Z,47.22
2019-05-03T08:27:20.336Z,47.31
2019-05-03T08:28:25.525Z,47.23
2019-05-03T08:29:30.728Z,47.07
2019-05-03T08:30:55.815Z,47.01
2019-05-03T08:32:07.755Z,46.98
2019-05-03T08:33:35.420Z,47.11
2019-05-03T08:34:51.106Z,47.20
2019-05-03T08:35:56.137Z,47.32
2019-05-03T08:37:05.401Z,47.37
2019-05-03T08:38:10.623Z,47.12
2019-05-03T08:39:15.871Z,47.04
2019-05-03T08:40:24.420Z,47.18
2019-05-03T08:41:30.776Z,47.19
2019-05-03T08:42:35.831Z,47.11
2019-05-03T08:43:40.820Z,47.04
2019-05-03T08:44:45.730Z,46.96
2019-05-03T08:45:50.619Z,47.00
2019-05-03T08:46:56.386Z,46.94
2019-05-03T08:48:01.523Z,47.03
2019-05-03T08:49:06.674Z,46.92
2019-05-03T08:50:15.770Z,46.99
2019-05-03T08:51:18.666Z,46.97
2019-05-03T08:52:24.792Z,46.97
2019-05-03T08:53:30.020Z,47.04
2019-05-03T08:54:35.106Z,47.14
2019-05-03T08:55:40.031Z,47.06
2019-05-03T08:56:45.326Z,47.26
2019-05-03T08:57:50.283Z,47.38
2019-05-03T08:58:55.586Z,47.46
2019-05-03T09:00:01.066Z,47.50
2019-05-03T09:01:06.252Z,47.41
2019-05-03T09:02:17.765Z,47.26
2019-05-03T09:03:18.189Z,47.13
2019-05-03T09:04:34.218Z,46.97
2019-05-03T09:05:30.294Z,46.74
2019-05-03T09:06:35.523Z,46.57
2019-05-03T09:07:40.817Z,46.52
2019-05-03T09:08:45.994Z,46.36
2019-05-03T09:09:58.250Z,46.15
2019-05-03T09:11:09.930Z,46.02
2019-05-03T09:12:15.455Z,45.76
2019-05-03T09:13:21.348Z,45.09
2019-05-03T09:14:38.748Z,44.84
2019-05-03T09:15:34.992Z,44.84
2019-05-03T09:16:40.029Z,44.77
2019-05-03T09:17:44.960Z,44.90
2019-05-03T09:18:49.967Z,44.97
2019-05-03T09:19:55.128Z,45.09
2019-05-03T09:21:00.262Z,45.11
2019-05-03T09:22:06.164Z,45.28
2019-05-03T09:23:11.459Z,45.42
2019-05-03T09:24:16.378Z,45.52
2019-05-03T09:25:21.687Z,45.74
2019-05-03T09:26:29.383Z,45.84
2019-05-03T09:27:34.435Z,45.82
2019-05-03T09:28:39.335Z,45.99
2019-05-03T09:29:46.218Z,46.08
2019-05-03T09:30:51.023Z,46.05
2019-05-03T09:31:56.113Z,46.13
2019-05-03T09:33:01.129Z,46.21
2019-05-03T09:34:08.218Z,46.25
2019-05-03T09:35:28.933Z,46.34
2019-05-03T09:36:21.317Z,46.46
2019-05-03T09:37:26.321Z,46.59
2019-05-03T09:38:31.495Z,46.73
2019-05-03T09:39:36.588Z,46.86
2019-05-03T09:40:41.663Z,47.04
2019-05-03T09:41:46.608Z,47.28
2019-05-03T09:42:51.862Z,47.41
2019-05-03T09:43:56.793Z,47.39
2019-05-03T09:45:01.888Z,47.19
2019-05-03T09:46:07.091Z,47.05
2019-05-03T09:47:14.519Z,46.95
2019-05-03T09:48:19.033Z,46.92
2019-05-03T09:49:25.322Z,46.78
2019-05-03T09:50:30.482Z,46.67
2019-05-03T09:51:35.453Z,46.66
2019-05-03T09:52:40.581Z,46.71
2019-05-03T09:53:51.129Z,46.59
2019-05-03T09:54:57.735Z,46.48
2019-05-03T09:56:05.036Z,46.42
2019-05-03T09:57:09.819Z,46.37
2019-05-03T09:58:15.425Z,46.39
2019-05-03T09:59:20.554Z,46.23
2019-05-03T10:00:25.579Z,45.90
2019-05-03T10:01:30.557Z,45.72
2019-05-03T10:02:35.847Z,45.50
2019-05-03T10:03:41.120Z,45.00
2019-05-03T10:04:46.142Z,44.09
2019-05-03T10:05:51.176Z,43.17
2019-05-03T10:06:56.316Z,42.34
2019-05-03T10:08:01.273Z,41.84
2019-05-03T10:09:06.827Z,41.68
2019-05-03T10:10:12.329Z,41.73
2019-05-03T10:11:17.881Z,41.83
2019-05-03T10:12:25.538Z,42.02
2019-05-03T10:13:30.528Z,42.18
2019-05-03T10:14:35.737Z,42.42
2019-05-03T10:15:41.295Z,42.55
2019-05-03T10:17:05.395Z,42.66
2019-05-03T10:18:13.324Z,42.76
2019-05-03T10:19:18.295Z,42.92
2019-05-03T10:20:25.289Z,42.96
2019-05-03T10:21:31.998Z,43.15
2019-05-03T10:22:37.026Z,43.28
2019-05-03T10:23:42.122Z,43.23
2019-05-03T10:24:47.173Z,43.06
2019-05-03T10:25:52.161Z,42.75
2019-05-03T10:26:57.440Z,42.26
2019-05-03T10:28:02.587Z,42.15
2019-05-03T10:29:07.622Z,42.16
2019-05-03T10:30:16.618Z,42.25
2019-05-03T10:31:25.221Z,42.44
2019-05-03T10:32:38.522Z,42.68
2019-05-03T10:33:54.424Z,42.86
2019-05-03T10:35:05.504Z,42.99
2019-05-03T10:36:10.193Z,43.16
2019-05-03T10:37:30.102Z,43.17
2019-05-03T10:38:35.192Z,43.19
2019-05-03T10:39:40.193Z,43.12
2019-05-03T10:40:45.419Z,42.81
2019-05-03T10:41:50.684Z,42.64
2019-05-03T10:42:56.396Z,42.53
2019-05-03T10:44:01.717Z,42.41
2019-05-03T10:45:06.823Z,41.97
2019-05-03T10:46:11.907Z,41.73
2019-05-03T10:47:16.928Z,41.52
2019-05-03T10:48:22.192Z,40.75
2019-05-03T10:49:27.405Z,40.19
2019-05-03T10:50:34.237Z,40.03
2019-05-03T10:51:45.239Z,39.78
2019-05-03T10:52:56.961Z,39.71
2019-05-03T10:54:02.141Z,39.60
2019-05-03T10:55:07.372Z,39.71
2019-05-03T10:56:31.826Z,39.71
2019-05-03T10:57:39.390Z,39.71
2019-05-03T10:58:46.370Z,39.77
2019-05-03T10:59:51.486Z,39.75
2019-05-03T11:00:56.836Z,39.74
2019-05-03T11:02:20.855Z,39.85
2019-05-03T11:03:25.802Z,39.90
2019-05-03T11:04:30.841Z,39.83
2019-05-03T11:05:36.228Z,39.64
2019-05-03T11:06:41.473Z,39.70
2019-05-03T11:07:46.771Z,39.51
2019-05-03T11:08:51.723Z,39.55
2019-05-03T11:09:56.675Z,39.68
2019-05-03T11:11:02.116Z,39.93
2019-05-03T11:12:07.194Z,40.07
2019-05-03T11:13:12.487Z,40.16
2019-05-03T11:14:19.712Z,40.19
2019-05-03T11:15:25.838Z,40.20
2019-05-03T11:16:31.137Z,40.30
2019-05-03T11:17:36.271Z,40.27
2019-05-03T11:18:41.599Z,40.17
2019-05-03T11:19:47.139Z,40.17
2019-05-03T11:20:52.329Z,40.15
2019-05-03T11:21:57.643Z,40.02
2019-05-03T11:23:05.891Z,40.08
2019-05-03T11:24:10.709Z,40.21
2019-05-03T11:25:16.238Z,40.25
2019-05-03T11:26:21.288Z,40.26
2019-05-03T11:27:32.395Z,40.07
2019-05-03T11:28:37.411Z,39.98
2019-05-03T11:29:42.374Z,39.97
2019-05-03T11:30:56.484Z,39.80
2019-05-03T11:32:09.427Z,39.77
2019-05-03T11:33:17.754Z,39.71
2019-05-03T11:34:25.385Z,39.55
2019-05-03T11:35:36.078Z,39.31
2019-05-03T11:37:07.179Z,39.06
2019-05-03T11:38:18.689Z,38.88
2019-05-03T11:39:25.094Z,38.90
2019-05-03T11:40:30.347Z,38.93
2019-05-03T11:41:37.025Z,38.82
2019-05-03T11:42:42.150Z,38.80
2019-05-03T11:43:47.137Z,38.78
2019-05-03T11:44:52.288Z,38.70
2019-05-03T11:45:57.265Z,38.71
2019-05-03T11:47:02.493Z,38.73
2019-05-03T11:48:07.722Z,38.83
2019-05-03T11:49:14.777Z,38.92
2019-05-03T11:50:19.883Z,38.86
2019-05-03T11:51:24.931Z,38.86
2019-05-03T11:52:30.048Z,38.86
2019-05-03T11:53:35.744Z,38.97
2019-05-03T11:54:41.290Z,38.98
2019-05-03T11:55:46.594Z,38.89
2019-05-03T11:56:55.639Z,38.98
2019-05-03T11:58:02.732Z,39.09
2019-05-03T11:59:07.807Z,39.11
2019-05-03T12:00:15.845Z,39.22
2019-05-03T12:01:25.677Z,39.14
2019-05-03T12:02:52.738Z,38.92
2019-05-03T12:04:01.976Z,38.72
2019-05-03T12:05:10.946Z,38.32
2019-05-03T12:06:16.363Z,38.28
2019-05-03T12:07:46.410Z,38.25
2019-05-03T12:08:51.857Z,38.14
2019-05-03T12:09:57.288Z,37.92
2019-05-03T12:11:02.317Z,37.69
2019-05-03T12:12:08.183Z,37.18
2019-05-03T12:13:22.138Z,36.91
2019-05-03T12:14:27.049Z,36.70
2019-05-03T12:15:32.140Z,36.55
2019-05-03T12:17:11.666Z,36.53
2019-05-03T12:17:54.176Z,36.66
2019-05-03T12:18:53.949Z,36.85
2019-05-03T12:19:59.908Z,37.19
2019-05-03T12:21:08.570Z,37.51
2019-05-03T12:22:13.059Z,37.71
2019-05-03T12:23:18.996Z,37.85
2019-05-03T12:24:26.717Z,37.89
2019-05-03T12:25:31.714Z,37.93
2019-05-03T12:26:43.797Z,38.00
2019-05-03T12:27:44.489Z,37.70
2019-05-03T12:28:49.486Z,37.58
2019-05-03T12:29:54.915Z,37.52
2019-05-03T12:31:00.166Z,37.48
2019-05-03T12:32:05.621Z,37.33
2019-05-03T12:33:10.653Z,37.40
2019-05-03T12:34:16.024Z,37.66
2019-05-03T12:35:21.244Z,37.88
2019-05-03T12:36:26.275Z,37.89
2019-05-03T12:37:31.229Z,37.91
2019-05-03T12:38:36.299Z,38.05
2019-05-03T12:39:41.227Z,38.16
2019-05-03T12:40:46.394Z,38.22
2019-05-03T12:41:51.464Z,38.21
2019-05-03T12:42:56.545Z,38.16
2019-05-03T12:44:01.576Z,38.16
2019-05-03T12:45:06.653Z,38.16
2019-05-03T12:46:11.968Z,38.10
2019-05-03T12:47:17.218Z,37.94
2019-05-03T12:48:22.227Z,37.96
2019-05-03T12:49:27.238Z,37.85
2019-05-03T12:50:34.437Z,37.54
2019-05-03T12:51:39.119Z,37.13
2019-05-03T12:52:50.497Z,37.02
2019-05-03T12:53:50.864Z,36.87
2019-05-03T12:54:56.178Z,36.78
2019-05-03T12:56:01.206Z,36.51
2019-05-03T12:57:06.576Z,36.37
2019-05-03T12:58:11.498Z,36.16
2019-05-03T12:59:23.732Z,35.76
2019-05-03T13:00:41.014Z,35.62
2019-05-03T13:01:56.726Z,35.40
2019-05-03T13:03:04.963Z,35.48
2019-05-03T13:04:15.319Z,35.46
2019-05-03T13:05:20.348Z,35.45
2019-05-03T13:06:25.549Z,35.39
2019-05-03T13:07:36.116Z,35.37
2019-05-03T13:08:45.392Z,35.29
2019-05-03T13:09:50.097Z,35.37
2019-05-03T13:10:55.707Z,35.24
2019-05-03T13:12:00.907Z,35.03
2019-05-03T13:13:05.901Z,35.07
2019-05-03T13:14:11.144Z,35.12
2019-05-03T13:15:16.394Z,35.15
2019-05-03T13:16:21.403Z,34.94
2019-05-03T13:17:36.527Z,34.93
2019-05-03T13:18:41.675Z,34.97
2019-05-03T13:19:46.735Z,34.99
2019-05-03T13:20:51.841Z,34.97
2019-05-03T13:21:57.836Z,34.85
2019-05-03T13:23:05.290Z,34.59
2019-05-03T13:24:22.509Z,34.43
2019-05-03T13:25:16.719Z,34.13
2019-05-03T13:26:21.765Z,34.02
2019-05-03T13:27:26.764Z,33.67
2019-05-03T13:28:32.228Z,33.76
2019-05-03T13:29:37.218Z,33.86
2019-05-03T13:30:42.216Z,33.78
2019-05-03T13:31:58.162Z,33.83
2019-05-03T13:32:54.929Z,33.94
2019-05-03T13:33:59.992Z,33.94
2019-05-03T13:35:05.864Z,33.97
2019-05-03T13:36:10.904Z,33.89
2019-05-03T13:37:16.084Z,33.84
2019-05-03T13:38:21.114Z,33.96
2019-05-03T13:39:26.685Z,33.89
2019-05-03T13:40:31.666Z,33.87
2019-05-03T13:41:36.713Z,33.80
2019-05-03T13:42:54.258Z,33.78
2019-05-03T13:43:48.422Z,33.78
2019-05-03T13:44:55.257Z,33.88
2019-05-03T13:46:00.626Z,33.99
2019-05-03T13:47:05.659Z,34.06
2019-05-03T13:48:10.739Z,34.15
2019-05-03T13:49:16.045Z,34.24
2019-05-03T13:50:21.077Z,34.24
2019-05-03T13:51:26.002Z,34.19
2019-05-03T13:52:31.019Z,34.04
2019-05-03T13:53:36.067Z,34.00
2019-05-03T13:54:41.324Z,34.03
2019-05-03T13:55:46.611Z,33.95
2019-05-03T13:56:51.570Z,33.92
2019-05-03T13:57:56.629Z,33.93
2019-05-03T13:59:01.683Z,33.96
2019-05-03T14:00:06.913Z,33.98
2019-05-03T14:01:14.604Z,33.92
2019-05-03T14:02:19.428Z,34.04
2019-05-03T14:03:24.378Z,34.20
2019-05-03T14:04:29.380Z,34.36
2019-05-03T14:05:35.227Z,34.33
2019-05-03T14:06:40.460Z,34.31
2019-05-03T14:07:45.567Z,34.34
2019-05-03T14:08:51.041Z,34.26
2019-05-03T14:09:56.133Z,34.22
2019-05-03T14:11:01.237Z,34.24
2019-05-03T14:12:07.608Z,34.33
2019-05-03T14:13:12.566Z,34.46
2019-05-03T14:14:17.547Z,34.47
2019-05-03T14:15:22.535Z,34.50
2019-05-03T14:16:27.588Z,34.55
2019-05-03T14:17:32.487Z,34.59
2019-05-03T14:18:37.617Z,34.64
2019-05-03T14:19:42.700Z,34.71
2019-05-03T14:21:07.518Z,34.79
2019-05-03T14:22:12.907Z,34.79
2019-05-03T14:23:18.128Z,34.96
2019-05-03T14:24:24.580Z,35.14
2019-05-03T14:25:29.676Z,35.23
2019-05-03T14:26:35.248Z,35.19